PWSweather.com
Personal Weather Stations
Station Observations
KVAGLENALL
West Henrico, Glen Allen, VA 23060-6503

West HenricoGlen Allen, VA 23060-6503

Lat: 37.6554, Lon: -77.5693

Elevation: 273

Station Type: Davis Vantage Pro II

www.glenallenweather.com

High Low Average
Temperature 84.1°F28.9°C 66.7°F19.3°C 74.1°F23.4°C
Dew Point 72.9°F22.7°C 63.1°F17.3°C 66.9°F19.4°C
Winds 10.1 mph 16.3 kmh 0.1 mph 0.2 kmh 2.0 mph S3.2 kmh S
Wind Gusts 14.2 mph22.9 kmh 0.1 mph0.2 kmh 4.0 mph6.4 kmh
Humidity 96% 54% 80%
Pressure 29.93 in1013.5 mb 29.85 in1010.8 mb -
Precipitation 0.00 in0.0 mm - -
Hour Temp Dew Point Humidity Winds Wind Gusts Pressure Precip Precip Rate Daily Precip Total
12:00 AM 68.3°F20.2°C 65.0°F18.3°C 89% 0.1 mph E0.2 kmh E 2.1 mph3.4 kmh 29.91 in1012.9 mb 0.02 in0.5 mm 0.00 in0.0 mm 0.02 in0.5 mm
12:15 AM 68.0°F20.0°C 65.0°F18.3°C 90% 4.1 mph E6.6 kmh E 4.1 mph6.6 kmh 29.90 in1012.5 mb 0.02 in0.5 mm 0.00 in0.0 mm 0.02 in0.5 mm
12:30 AM 67.7°F19.8°C 65.0°F18.3°C 91% 2.0 mph E3.2 kmh E 4.1 mph6.6 kmh 29.90 in1012.5 mb 0.03 in0.8 mm 0.04 in1.0 mm 0.03 in0.8 mm
12:45 AM 67.5°F19.7°C 65.1°F18.4°C 92% 2.0 mph ESE3.2 kmh ESE 6.1 mph9.8 kmh 29.90 in1012.5 mb 0.04 in1.0 mm 0.04 in1.0 mm 0.04 in1.0 mm
01:00 AM 67.1°F19.5°C 64.7°F18.2°C 92% 4.1 mph E6.6 kmh E 4.1 mph6.6 kmh 29.90 in1012.5 mb 0.04 in1.0 mm 0.00 in0.0 mm 0.04 in1.0 mm
01:15 AM 66.9°F19.4°C 64.5°F18.1°C 92% 0.1 mph ESE0.2 kmh ESE 3.1 mph5.0 kmh 29.89 in1012.2 mb 0.05 in1.3 mm 0.04 in1.0 mm 0.05 in1.3 mm
01:30 AM 66.8°F19.3°C 64.8°F18.2°C 93% 0.1 mph SE0.2 kmh SE 3.1 mph5.0 kmh 29.89 in1012.2 mb 0.05 in1.3 mm 0.00 in0.0 mm 0.05 in1.3 mm
01:45 AM 66.7°F19.3°C 64.7°F18.2°C 93% 4.1 mph E6.6 kmh E 7.1 mph11.4 kmh 29.89 in1012.2 mb 0.04 in1.0 mm 0.00 in0.0 mm 0.05 in1.3 mm
02:00 AM 66.7°F19.3°C 64.7°F18.2°C 93% 2.0 mph E3.2 kmh E 4.1 mph6.6 kmh 29.89 in1012.2 mb 0.02 in0.5 mm 0.00 in0.0 mm 0.05 in1.3 mm
02:15 AM 66.8°F19.3°C 65.1°F18.4°C 94% 3.0 mph E4.8 kmh E 4.1 mph6.6 kmh 29.89 in1012.2 mb 0.02 in0.5 mm 0.00 in0.0 mm 0.05 in1.3 mm
02:30 AM 66.9°F19.4°C 65.2°F18.4°C 94% 2.0 mph ESE3.2 kmh ESE 3.1 mph5.0 kmh 29.88 in1011.9 mb 0.01 in0.3 mm 0.00 in0.0 mm 0.05 in1.3 mm
02:45 AM 67.1°F19.5°C 65.4°F18.6°C 94% 1.0 mph SE1.6 kmh SE 6.1 mph9.8 kmh 29.88 in1011.9 mb 0.01 in0.3 mm 0.00 in0.0 mm 0.05 in1.3 mm
03:00 AM 67.2°F19.6°C 65.5°F18.6°C 94% 0.1 mph ESE0.2 kmh ESE 1.1 mph1.8 kmh 29.88 in1011.9 mb 0.01 in0.3 mm 0.00 in0.0 mm 0.05 in1.3 mm
03:15 AM 67.4°F19.7°C 65.7°F18.7°C 94% 1.0 mph ESE1.6 kmh ESE 4.1 mph6.6 kmh 29.88 in1011.9 mb 0.00 in0.0 mm 0.00 in0.0 mm 0.05 in1.3 mm
03:30 AM 67.5°F19.7°C 65.8°F18.8°C 94% 2.0 mph ESE3.2 kmh ESE 2.1 mph3.4 kmh 29.88 in1011.9 mb 0.00 in0.0 mm 0.00 in0.0 mm 0.05 in1.3 mm
03:45 AM 67.6°F19.8°C 65.9°F18.8°C 94% 1.0 mph E1.6 kmh E 3.1 mph5.0 kmh 29.87 in1011.5 mb 0.00 in0.0 mm 0.00 in0.0 mm 0.05 in1.3 mm
04:00 AM 67.7°F19.8°C 66.0°F18.9°C 94% 0.1 mph E0.2 kmh E 2.1 mph3.4 kmh 29.87 in1011.5 mb 0.00 in0.0 mm 0.00 in0.0 mm 0.05 in1.3 mm
04:15 AM 67.8°F19.9°C 66.1°F18.9°C 94% 2.0 mph ESE3.2 kmh ESE 2.1 mph3.4 kmh 29.87 in1011.5 mb 0.00 in0.0 mm 0.00 in0.0 mm 0.05 in1.3 mm
04:30 AM 67.9°F19.9°C 66.2°F19.0°C 94% 0.1 mph SE0.2 kmh SE 1.1 mph1.8 kmh 29.87 in1011.5 mb 0.00 in0.0 mm 0.00 in0.0 mm 0.05 in1.3 mm
04:45 AM 68.1°F20.1°C 66.7°F19.3°C 95% 0.1 mph SSE0.2 kmh SSE 1.1 mph1.8 kmh 29.87 in1011.5 mb 0.00 in0.0 mm 0.00 in0.0 mm 0.05 in1.3 mm
05:00 AM 68.3°F20.2°C 66.9°F19.4°C 95% 1.0 mph SSE1.6 kmh SSE 2.1 mph3.4 kmh 29.88 in1011.9 mb 0.00 in0.0 mm 0.00 in0.0 mm 0.05 in1.3 mm
07:00 AM 69.0°F20.6°C 67.6°F19.8°C 95% 2.0 mph SE3.2 kmh SE 2.1 mph3.4 kmh 29.90 in1012.5 mb 0.02 in0.5 mm 0.00 in0.0 mm 0.07 in1.8 mm
07:15 AM 69.1°F20.6°C 68.0°F20.0°C 96% 0.1 mph S0.2 kmh S 4.1 mph6.6 kmh 29.91 in1012.9 mb 0.02 in0.5 mm 0.00 in0.0 mm 0.07 in1.8 mm
07:30 AM 69.4°F20.8°C 68.2°F20.1°C 96% 0.1 mph SE0.2 kmh SE 3.1 mph5.0 kmh 29.91 in1012.9 mb 0.02 in0.5 mm 0.00 in0.0 mm 0.07 in1.8 mm
07:45 AM 69.6°F20.9°C 68.4°F20.2°C 96% 0.1 mph SE0.2 kmh SE 3.1 mph5.0 kmh 29.91 in1012.9 mb 0.02 in0.5 mm 0.00 in0.0 mm 0.07 in1.8 mm
08:00 AM 70.0°F21.1°C 68.8°F20.4°C 96% 0.1 mph SSW0.2 kmh SSW 1.1 mph1.8 kmh 29.91 in1012.9 mb 0.00 in0.0 mm 0.00 in0.0 mm 0.07 in1.8 mm
08:15 AM 70.3°F21.3°C 69.1°F20.6°C 96% 0.1 mph SSW0.2 kmh SSW 1.1 mph1.8 kmh 29.92 in1013.2 mb 0.00 in0.0 mm 0.00 in0.0 mm 0.07 in1.8 mm
08:30 AM 70.5°F21.4°C 69.0°F20.6°C 95% 0.1 mph SSW0.2 kmh SSW 1.1 mph1.8 kmh 29.92 in1013.2 mb 0.00 in0.0 mm 0.00 in0.0 mm 0.07 in1.8 mm
08:45 AM 70.8°F21.6°C 69.3°F20.7°C 95% 0.1 mph S0.2 kmh S 0.1 mph0.2 kmh 29.92 in1013.2 mb 0.00 in0.0 mm 0.00 in0.0 mm 0.07 in1.8 mm
09:00 AM 71.1°F21.7°C 69.6°F20.9°C 95% 1.0 mph SSW1.6 kmh SSW 2.1 mph3.4 kmh 29.92 in1013.2 mb 0.00 in0.0 mm 0.00 in0.0 mm 0.07 in1.8 mm
09:15 AM 71.4°F21.9°C 69.5°F20.8°C 94% 0.1 mph SW0.2 kmh SW 1.1 mph1.8 kmh 29.92 in1013.2 mb 0.00 in0.0 mm 0.00 in0.0 mm 0.07 in1.8 mm
09:30 AM 71.8°F22.1°C 69.9°F21.1°C 94% 0.1 mph S0.2 kmh S 1.1 mph1.8 kmh 29.93 in1013.5 mb 0.00 in0.0 mm 0.00 in0.0 mm 0.07 in1.8 mm
09:45 AM 72.4°F22.4°C 70.2°F21.2°C 93% 2.0 mph SSW3.2 kmh SSW 2.1 mph3.4 kmh 29.92 in1013.2 mb 0.00 in0.0 mm 0.00 in0.0 mm 0.07 in1.8 mm
10:00 AM 73.5°F23.1°C 71.3°F21.8°C 93% 3.0 mph WSW4.8 kmh WSW 3.1 mph5.0 kmh 29.93 in1013.5 mb 0.00 in0.0 mm 0.00 in0.0 mm 0.07 in1.8 mm
10:15 AM 74.4°F23.6°C 71.3°F21.8°C 90% 1.0 mph S1.6 kmh S 6.1 mph9.8 kmh 29.93 in1013.5 mb 0.00 in0.0 mm 0.00 in0.0 mm 0.07 in1.8 mm
10:30 AM 75.2°F24.0°C 71.4°F21.9°C 88% 3.0 mph SW4.8 kmh SW 6.1 mph9.8 kmh 29.93 in1013.5 mb 0.00 in0.0 mm 0.00 in0.0 mm 0.07 in1.8 mm
10:45 AM 75.4°F24.1°C 71.2°F21.8°C 87% 5.1 mph SSW8.2 kmh SSW 7.1 mph11.4 kmh 29.93 in1013.5 mb 0.00 in0.0 mm 0.00 in0.0 mm 0.07 in1.8 mm
11:00 AM 77.1°F25.1°C 72.2°F22.3°C 85% 4.1 mph SW6.6 kmh SW 7.1 mph11.4 kmh 29.93 in1013.5 mb 0.00 in0.0 mm 0.00 in0.0 mm 0.07 in1.8 mm
11:15 AM 79.2°F26.2°C 72.9°F22.7°C 81% 1.0 mph SE1.6 kmh SE 2.1 mph3.4 kmh 29.92 in1013.2 mb 0.00 in0.0 mm 0.00 in0.0 mm 0.07 in1.8 mm
11:30 AM 80.5°F26.9°C 72.6°F22.6°C 77% 1.0 mph SE1.6 kmh SE 4.1 mph6.6 kmh 29.92 in1013.2 mb 0.00 in0.0 mm 0.00 in0.0 mm 0.07 in1.8 mm
11:45 AM 81.0°F27.2°C 71.9°F22.2°C 74% 2.0 mph S3.2 kmh S 13.2 mph21.2 kmh 29.92 in1013.2 mb 0.00 in0.0 mm 0.00 in0.0 mm 0.07 in1.8 mm
12:00 PM 81.7°F27.6°C 71.8°F22.1°C 72% 5.1 mph S8.2 kmh S 9.1 mph14.6 kmh 29.92 in1013.2 mb 0.00 in0.0 mm 0.00 in0.0 mm 0.07 in1.8 mm
12:15 PM 82.4°F28.0°C 72.5°F22.5°C 72% 5.1 mph S8.2 kmh S 6.1 mph9.8 kmh 29.91 in1012.9 mb 0.00 in0.0 mm 0.00 in0.0 mm 0.07 in1.8 mm
12:30 PM 82.1°F27.8°C 72.2°F22.3°C 72% 0.1 mph SW0.2 kmh SW 2.1 mph3.4 kmh 29.91 in1012.9 mb 0.00 in0.0 mm 0.00 in0.0 mm 0.07 in1.8 mm
12:45 PM 81.1°F27.3°C 72.0°F22.2°C 74% 1.0 mph SE1.6 kmh SE 4.1 mph6.6 kmh 29.91 in1012.9 mb 0.00 in0.0 mm 0.00 in0.0 mm 0.07 in1.8 mm
01:00 PM 81.7°F27.6°C 71.0°F21.7°C 70% 5.1 mph SW8.2 kmh SW 8.1 mph13.0 kmh 29.90 in1012.5 mb 0.00 in0.0 mm 0.00 in0.0 mm 0.07 in1.8 mm
01:15 PM 82.3°F27.9°C 72.0°F22.2°C 71% 4.1 mph SW6.6 kmh SW 5.1 mph8.2 kmh 29.90 in1012.5 mb 0.00 in0.0 mm 0.00 in0.0 mm 0.07 in1.8 mm
01:30 PM 82.6°F28.1°C 71.0°F21.7°C 68% 7.1 mph SW11.4 kmh SW 8.1 mph13.0 kmh 29.90 in1012.5 mb 0.00 in0.0 mm 0.00 in0.0 mm 0.07 in1.8 mm
01:45 PM 82.2°F27.9°C 68.8°F20.4°C 64% 2.0 mph SW3.2 kmh SW 7.1 mph11.4 kmh 29.89 in1012.2 mb 0.00 in0.0 mm 0.00 in0.0 mm 0.07 in1.8 mm
02:00 PM 83.3°F28.5°C 70.3°F21.3°C 65% 7.1 mph S11.4 kmh S 8.1 mph13.0 kmh 29.89 in1012.2 mb 0.00 in0.0 mm 0.00 in0.0 mm 0.07 in1.8 mm
02:15 PM 82.3°F27.9°C 69.8°F21.0°C 66% 4.1 mph SW6.6 kmh SW 4.1 mph6.6 kmh 29.89 in1012.2 mb 0.00 in0.0 mm 0.00 in0.0 mm 0.07 in1.8 mm
02:30 PM 82.7°F28.2°C 70.2°F21.2°C 66% 10.1 mph SSW16.3 kmh SSW 12.2 mph19.6 kmh 29.88 in1011.9 mb 0.00 in0.0 mm 0.00 in0.0 mm 0.07 in1.8 mm
02:45 PM 83.6°F28.7°C 68.8°F20.4°C 61% 3.0 mph SW4.8 kmh SW 7.1 mph11.4 kmh 29.88 in1011.9 mb 0.00 in0.0 mm 0.00 in0.0 mm 0.07 in1.8 mm
03:00 PM 83.8°F28.8°C 69.4°F20.8°C 62% 1.0 mph SSW1.6 kmh SSW 6.1 mph9.8 kmh 29.88 in1011.9 mb 0.00 in0.0 mm 0.00 in0.0 mm 0.07 in1.8 mm
03:15 PM 84.1°F28.9°C 67.8°F19.9°C 58% 5.1 mph SW8.2 kmh SW 10.1 mph16.3 kmh 29.87 in1011.5 mb 0.00 in0.0 mm 0.00 in0.0 mm 0.07 in1.8 mm
03:30 PM 83.6°F28.7°C 67.3°F19.6°C 58% 3.0 mph SSW4.8 kmh SSW 4.1 mph6.6 kmh 29.86 in1011.2 mb 0.00 in0.0 mm 0.00 in0.0 mm 0.07 in1.8 mm
03:45 PM 83.6°F28.7°C 66.8°F19.3°C 57% 7.1 mph WSW11.4 kmh WSW 7.1 mph11.4 kmh 29.86 in1011.2 mb 0.00 in0.0 mm 0.00 in0.0 mm 0.07 in1.8 mm
04:00 PM 83.1°F28.4°C 66.8°F19.3°C 58% 1.0 mph S1.6 kmh S 4.1 mph6.6 kmh 29.85 in1010.8 mb 0.00 in0.0 mm 0.00 in0.0 mm 0.07 in1.8 mm
04:15 PM 82.8°F28.2°C 67.5°F19.7°C 60% 6.1 mph S9.8 kmh S 8.1 mph13.0 kmh 29.85 in1010.8 mb 0.00 in0.0 mm 0.00 in0.0 mm 0.07 in1.8 mm
04:30 PM 82.6°F28.1°C 65.3°F18.5°C 56% 5.1 mph S8.2 kmh S 8.1 mph13.0 kmh 29.85 in1010.8 mb 0.00 in0.0 mm 0.00 in0.0 mm 0.07 in1.8 mm
04:45 PM 82.8°F28.2°C 65.5°F18.6°C 56% 8.1 mph SSW13.0 kmh SSW 14.2 mph22.9 kmh 29.85 in1010.8 mb 0.00 in0.0 mm 0.00 in0.0 mm 0.07 in1.8 mm
05:00 PM 82.1°F27.8°C 63.8°F17.7°C 54% 6.1 mph SW9.8 kmh SW 14.2 mph22.9 kmh 29.85 in1010.8 mb 0.00 in0.0 mm 0.00 in0.0 mm 0.07 in1.8 mm
05:15 PM 81.8°F27.7°C 64.1°F17.8°C 55% 8.1 mph S13.0 kmh S 12.2 mph19.6 kmh 29.85 in1010.8 mb 0.00 in0.0 mm 0.00 in0.0 mm 0.07 in1.8 mm
05:30 PM 81.3°F27.4°C 63.6°F17.6°C 55% 7.1 mph S11.4 kmh S 9.1 mph14.6 kmh 29.86 in1011.2 mb 0.00 in0.0 mm 0.00 in0.0 mm 0.07 in1.8 mm
05:45 PM 80.8°F27.1°C 63.1°F17.3°C 55% 3.0 mph SW4.8 kmh SW 11.2 mph18.0 kmh 29.86 in1011.2 mb 0.00 in0.0 mm 0.00 in0.0 mm 0.07 in1.8 mm
06:00 PM 79.9°F26.6°C 63.8°F17.7°C 58% 5.1 mph SE8.2 kmh SE 8.1 mph13.0 kmh 29.85 in1010.8 mb 0.00 in0.0 mm 0.00 in0.0 mm 0.07 in1.8 mm
06:15 PM 79.8°F26.6°C 63.7°F17.6°C 58% 6.1 mph SSW9.8 kmh SSW 8.1 mph13.0 kmh 29.86 in1011.2 mb 0.00 in0.0 mm 0.00 in0.0 mm 0.07 in1.8 mm
06:30 PM 78.9°F26.1°C 64.3°F17.9°C 61% 3.0 mph SW4.8 kmh SW 7.1 mph11.4 kmh 29.86 in1011.2 mb 0.00 in0.0 mm 0.00 in0.0 mm 0.07 in1.8 mm
06:45 PM 78.3°F25.7°C 64.7°F18.2°C 63% 3.0 mph SSW4.8 kmh SSW 6.1 mph9.8 kmh 29.86 in1011.2 mb 0.00 in0.0 mm 0.00 in0.0 mm 0.07 in1.8 mm
07:00 PM 77.5°F25.3°C 64.8°F18.2°C 65% 4.1 mph S6.6 kmh S 4.1 mph6.6 kmh 29.86 in1011.2 mb 0.00 in0.0 mm 0.00 in0.0 mm 0.07 in1.8 mm
07:15 PM 76.1°F24.5°C 64.8°F18.2°C 68% 0.1 mph S0.2 kmh S 0.1 mph0.2 kmh 29.86 in1011.2 mb 0.00 in0.0 mm 0.00 in0.0 mm 0.07 in1.8 mm
07:30 PM 74.4°F23.6°C 64.4°F18.0°C 71% 0.1 mph SSW0.2 kmh SSW 1.1 mph1.8 kmh 29.87 in1011.5 mb 0.00 in0.0 mm 0.00 in0.0 mm 0.07 in1.8 mm
07:45 PM 73.4°F23.0°C 64.6°F18.1°C 74% 0.1 mph SSW0.2 kmh SSW 1.1 mph1.8 kmh 29.87 in1011.5 mb 0.00 in0.0 mm 0.00 in0.0 mm 0.07 in1.8 mm
08:00 PM 72.4°F22.4°C 64.0°F17.8°C 75% 0.1 mph SSW0.2 kmh SSW 2.1 mph3.4 kmh 29.87 in1011.5 mb 0.00 in0.0 mm 0.00 in0.0 mm 0.07 in1.8 mm
08:15 PM 71.7°F22.1°C 64.1°F17.8°C 77% 0.1 mph SSW0.2 kmh SSW 1.1 mph1.8 kmh 29.88 in1011.9 mb 0.00 in0.0 mm 0.00 in0.0 mm 0.07 in1.8 mm
08:30 PM 71.0°F21.7°C 63.8°F17.7°C 78% 1.0 mph SSW1.6 kmh SSW 1.1 mph1.8 kmh 29.88 in1011.9 mb 0.00 in0.0 mm 0.00 in0.0 mm 0.07 in1.8 mm
08:45 PM 70.8°F21.6°C 63.9°F17.7°C 79% 1.0 mph SSW1.6 kmh SSW 2.1 mph3.4 kmh 29.88 in1011.9 mb 0.00 in0.0 mm 0.00 in0.0 mm 0.07 in1.8 mm
09:00 PM 70.6°F21.4°C 64.1°F17.8°C 80% 1.0 mph SSW1.6 kmh SSW 2.1 mph3.4 kmh 29.88 in1011.9 mb 0.00 in0.0 mm 0.00 in0.0 mm 0.07 in1.8 mm
09:15 PM 70.3°F21.3°C 64.2°F17.9°C 81% 1.0 mph SSW1.6 kmh SSW 2.1 mph3.4 kmh 29.88 in1011.9 mb 0.00 in0.0 mm 0.00 in0.0 mm 0.07 in1.8 mm
09:30 PM 70.4°F21.3°C 64.3°F17.9°C 81% 1.0 mph S1.6 kmh S 2.1 mph3.4 kmh 29.88 in1011.9 mb 0.00 in0.0 mm 0.00 in0.0 mm 0.07 in1.8 mm
09:45 PM 69.7°F20.9°C 63.9°F17.7°C 82% 1.0 mph S1.6 kmh S 1.1 mph1.8 kmh 29.88 in1011.9 mb 0.00 in0.0 mm 0.00 in0.0 mm 0.07 in1.8 mm
10:00 PM 69.2°F20.7°C 63.9°F17.7°C 83% 0.1 mph S0.2 kmh S 1.1 mph1.8 kmh 29.88 in1011.9 mb 0.00 in0.0 mm 0.00 in0.0 mm 0.07 in1.8 mm
10:15 PM 69.0°F20.6°C 64.0°F17.8°C 84% 0.1 mph S0.2 kmh S 2.1 mph3.4 kmh 29.88 in1011.9 mb 0.00 in0.0 mm 0.00 in0.0 mm 0.07 in1.8 mm
10:30 PM 68.9°F20.5°C 63.9°F17.7°C 84% 1.0 mph S1.6 kmh S 2.1 mph3.4 kmh 29.88 in1011.9 mb 0.00 in0.0 mm 0.00 in0.0 mm 0.07 in1.8 mm
10:45 PM 68.9°F20.5°C 63.9°F17.7°C 84% 1.0 mph S1.6 kmh S 2.1 mph3.4 kmh 29.89 in1012.2 mb 0.00 in0.0 mm 0.00 in0.0 mm 0.07 in1.8 mm
11:00 PM 69.1°F20.6°C 64.1°F17.8°C 84% 1.0 mph S1.6 kmh S 2.1 mph3.4 kmh 29.89 in1012.2 mb 0.00 in0.0 mm 0.00 in0.0 mm 0.07 in1.8 mm
11:15 PM 68.8°F20.4°C 64.2°F17.9°C 85% 1.0 mph S1.6 kmh S 2.1 mph3.4 kmh 29.89 in1012.2 mb 0.00 in0.0 mm 0.00 in0.0 mm 0.07 in1.8 mm
11:30 PM 68.8°F20.4°C 64.2°F17.9°C 85% 1.0 mph SSW1.6 kmh SSW 2.1 mph3.4 kmh 29.89 in1012.2 mb 0.00 in0.0 mm 0.00 in0.0 mm 0.07 in1.8 mm
11:45 PM 68.4°F20.2°C 64.1°F17.8°C 86% 1.0 mph S1.6 kmh S 2.1 mph3.4 kmh 29.89 in1012.2 mb 0.00 in0.0 mm 0.00 in0.0 mm 0.07 in1.8 mm